createdAt,value
2019-05-01T00:02:06.039Z,32.13
2019-05-01T00:04:42.803Z,31.27
2019-05-01T00:07:25.858Z,32.83
2019-05-01T00:09:56.559Z,32.73
2019-05-01T00:12:25.955Z,31.30
2019-05-01T00:14:55.276Z,33.30
2019-05-01T00:17:27.576Z,33.20
2019-05-01T00:19:57.141Z,34.47
2019-05-01T00:22:27.880Z,33.50
2019-05-01T00:24:57.143Z,33.90
2019-05-01T00:27:26.455Z,33.50
2019-05-01T00:29:55.723Z,34.37
2019-05-01T00:32:25.993Z,33.77
2019-05-01T00:34:55.303Z,32.63
2019-05-01T00:37:24.571Z,33.53
2019-05-01T00:39:53.878Z,34.67
2019-05-01T00:42:23.191Z,36.87
2019-05-01T00:44:52.530Z,34.00
2019-05-01T00:47:21.840Z,35.90
2019-05-01T00:49:51.107Z,33.67
2019-05-01T00:52:20.383Z,35.90
2019-05-01T00:54:51.307Z,35.17
2019-05-01T00:57:37.180Z,35.97
2019-05-01T01:00:14.133Z,35.43
2019-05-01T01:02:45.046Z,33.70
2019-05-01T01:05:15.544Z,37.07
2019-05-01T01:07:44.811Z,38.13
2019-05-01T01:10:14.310Z,35.17
2019-05-01T01:12:43.633Z,35.10
2019-05-01T01:15:13.314Z,35.83
2019-05-01T01:17:42.594Z,34.80
2019-05-01T01:20:12.014Z,34.83
2019-05-01T01:22:41.471Z,33.93
2019-05-01T01:25:11.159Z,34.87
2019-05-01T01:27:40.654Z,34.53
2019-05-01T01:30:10.451Z,35.70
2019-05-01T01:32:39.775Z,37.40
2019-05-01T01:35:09.319Z,36.97
2019-05-01T01:37:38.675Z,37.00
2019-05-01T01:40:08.278Z,34.70
2019-05-01T01:42:38.713Z,38.10
2019-05-01T01:45:12.428Z,36.30
2019-05-01T01:48:00.322Z,36.40
2019-05-01T01:50:30.015Z,35.87
2019-05-01T01:52:59.493Z,35.17
2019-05-01T01:55:29.374Z,34.00
2019-05-01T01:57:58.983Z,37.00
2019-05-01T02:00:29.937Z,36.03
2019-05-01T02:03:01.448Z,36.07
2019-05-01T02:05:32.522Z,36.30
2019-05-01T02:08:02.740Z,38.83
2019-05-01T02:10:42.568Z,37.60
2019-05-01T02:13:03.476Z,40.93
2019-05-01T02:15:32.846Z,36.63
2019-05-01T02:18:02.172Z,37.60
2019-05-01T02:20:31.666Z,39.17
2019-05-01T02:23:02.237Z,38.10
2019-05-01T02:25:33.382Z,41.13
2019-05-01T02:28:23.267Z,39.93
2019-05-01T02:31:27.151Z,38.37
2019-05-01T02:33:47.271Z,39.20
2019-05-01T02:36:19.038Z,37.20
2019-05-01T02:38:49.806Z,35.90
2019-05-01T02:41:20.550Z,37.80
2019-05-01T02:43:54.277Z,41.20
2019-05-01T02:46:25.762Z,39.77
2019-05-01T02:49:04.064Z,37.77
2019-05-01T02:51:35.251Z,39.23
2019-05-01T02:54:06.000Z,41.03
2019-05-01T02:56:38.033Z,39.13
2019-05-01T02:59:09.123Z,39.70
2019-05-01T03:01:47.392Z,40.40
2019-05-01T03:04:11.224Z,41.87
2019-05-01T03:06:40.951Z,40.03
2019-05-01T03:09:10.582Z,38.60
2019-05-01T03:11:41.961Z,38.20
2019-05-01T03:14:14.291Z,40.90
2019-05-01T03:16:45.568Z,39.00
2019-05-01T03:19:28.720Z,40.13
2019-05-01T03:22:16.392Z,41.43
2019-05-01T03:24:45.899Z,39.23
2019-05-01T03:27:17.084Z,39.73
2019-05-01T03:29:48.098Z,37.93
2019-05-01T03:32:19.519Z,40.90
2019-05-01T03:34:52.659Z,40.17
2019-05-01T03:37:21.219Z,42.47
2019-05-01T03:39:50.851Z,38.27
2019-05-01T03:42:22.355Z,39.10
2019-05-01T03:44:51.906Z,38.10
2019-05-01T03:47:21.697Z,42.07
2019-05-01T03:49:51.184Z,40.83
2019-05-01T03:52:20.671Z,41.07
2019-05-01T03:54:50.278Z,40.73
2019-05-01T03:57:19.846Z,40.17
2019-05-01T03:59:49.155Z,42.53
2019-05-01T04:02:32.763Z,43.03
2019-05-01T04:04:55.179Z,43.80
2019-05-01T04:07:24.615Z,43.87
2019-05-01T04:09:54.217Z,45.47
2019-05-01T04:12:23.775Z,44.10
2019-05-01T04:14:53.205Z,47.13
2019-05-01T04:17:33.164Z,49.23
2019-05-01T04:20:02.576Z,48.37
2019-05-01T04:22:31.935Z,49.43
2019-05-01T04:25:01.572Z,46.83
2019-05-01T04:27:32.794Z,52.13
2019-05-01T04:30:19.001Z,48.30
2019-05-01T04:32:52.958Z,46.90
2019-05-01T04:35:25.719Z,48.00
2019-05-01T04:37:55.301Z,47.67
2019-05-01T04:40:25.229Z,44.60
2019-05-01T04:42:56.135Z,45.07
2019-05-01T04:45:26.135Z,44.77
2019-05-01T04:47:55.892Z,46.83
2019-05-01T04:50:25.366Z,46.00
2019-05-01T04:52:55.095Z,45.87
2019-05-01T04:55:24.494Z,46.93
2019-05-01T04:57:53.823Z,47.50
2019-05-01T05:00:23.155Z,48.47
2019-05-01T05:03:04.472Z,48.90
2019-05-01T05:05:26.810Z,47.57
2019-05-01T05:07:56.118Z,49.97
2019-05-01T05:10:25.493Z,49.13
2019-05-01T05:12:59.656Z,51.00
2019-05-01T05:15:31.311Z,52.27
2019-05-01T05:18:00.852Z,47.77
2019-05-01T05:20:30.663Z,50.77
2019-05-01T05:23:01.547Z,48.60
2019-05-01T05:25:31.425Z,53.70
2019-05-01T05:28:01.209Z,53.67
2019-05-01T05:30:32.343Z,51.00
2019-05-01T05:33:17.166Z,50.60
2019-05-01T05:35:38.398Z,48.70
2019-05-01T05:38:10.819Z,49.87
2019-05-01T05:40:41.963Z,50.23
2019-05-01T05:43:11.563Z,49.70
2019-05-01T05:45:41.108Z,51.60
2019-05-01T05:48:10.460Z,48.30
2019-05-01T05:50:58.795Z,49.53
2019-05-01T05:53:32.634Z,49.30
2019-05-01T05:56:05.407Z,49.37
2019-05-01T05:58:45.023Z,49.60
2019-05-01T06:01:29.746Z,48.60
2019-05-01T06:04:10.542Z,47.77
2019-05-01T06:06:46.829Z,50.53
2019-05-01T06:09:18.988Z,50.27
2019-05-01T06:11:53.376Z,52.00
2019-05-01T06:14:39.506Z,50.53
2019-05-01T06:17:29.868Z,49.17
2019-05-01T06:20:06.828Z,51.60
2019-05-01T06:22:40.806Z,49.40
2019-05-01T06:25:22.856Z,47.20
2019-05-01T06:27:51.254Z,45.73
2019-05-01T06:30:20.545Z,44.00
2019-05-01T06:32:49.957Z,45.83
2019-05-01T06:35:19.207Z,45.70
2019-05-01T06:38:03.711Z,46.63
2019-05-01T06:40:40.694Z,44.20
2019-05-01T06:43:14.753Z,48.30
2019-05-01T06:45:46.933Z,49.00
2019-05-01T06:48:25.131Z,45.47
2019-05-01T06:50:57.312Z,46.30
2019-05-01T06:53:26.999Z,47.60
2019-05-01T06:55:56.423Z,48.67
2019-05-01T06:58:27.347Z,47.00
2019-05-01T07:00:56.850Z,47.80
2019-05-01T07:03:26.260Z,48.47
2019-05-01T07:05:56.304Z,48.07
2019-05-01T07:08:29.531Z,49.67
2019-05-01T07:10:57.257Z,48.67
2019-05-01T07:13:26.678Z,49.67
2019-05-01T07:15:58.365Z,49.73
2019-05-01T07:18:29.138Z,51.93
2019-05-01T07:20:58.134Z,50.40
2019-05-01T07:23:27.650Z,52.70
2019-05-01T07:25:57.058Z,48.53
2019-05-01T07:28:28.936Z,50.10
2019-05-01T07:31:00.948Z,52.37
2019-05-01T07:33:30.410Z,47.67
2019-05-01T07:36:00.462Z,53.77
2019-05-01T07:38:32.910Z,53.00
2019-05-01T07:41:03.482Z,51.40
2019-05-01T07:43:40.290Z,52.30
2019-05-01T07:46:18.423Z,49.60
2019-05-01T07:48:45.996Z,50.57
2019-05-01T07:51:15.503Z,49.90
2019-05-01T07:53:45.496Z,48.67
2019-05-01T07:56:17.278Z,47.07
2019-05-01T07:58:47.546Z,45.07
2019-05-01T08:01:20.184Z,48.63
2019-05-01T08:03:49.508Z,46.97
2019-05-01T08:06:21.835Z,46.17
2019-05-01T08:08:49.861Z,45.90
2019-05-01T08:11:19.224Z,47.53
2019-05-01T08:13:48.463Z,44.70
2019-05-01T08:16:17.942Z,47.83
2019-05-01T08:18:59.024Z,48.03
2019-05-01T08:21:30.459Z,50.37
2019-05-01T08:23:59.864Z,47.20
2019-05-01T08:26:29.101Z,48.40
2019-05-01T08:29:06.815Z,49.40
2019-05-01T08:31:41.707Z,49.27
2019-05-01T08:34:12.603Z,52.80
2019-05-01T08:36:42.707Z,54.80
2019-05-01T08:39:13.934Z,50.03
2019-05-01T08:41:43.357Z,54.27
2019-05-01T08:44:12.638Z,52.30
2019-05-01T08:46:46.765Z,52.60
2019-05-01T08:49:19.090Z,49.93
2019-05-01T08:51:49.592Z,47.77
2019-05-01T08:54:19.021Z,50.83
2019-05-01T08:56:48.451Z,49.73
2019-05-01T08:59:19.343Z,52.77
2019-05-01T09:01:50.616Z,51.60
2019-05-01T09:04:19.731Z,52.03
2019-05-01T09:06:49.151Z,51.67
2019-05-01T09:09:18.516Z,52.10
2019-05-01T09:11:47.822Z,60.23
2019-05-01T09:14:17.187Z,57.60
2019-05-01T09:16:46.458Z,57.10
2019-05-01T09:19:15.789Z,56.40
2019-05-01T09:21:45.073Z,58.07
2019-05-01T09:24:14.398Z,62.90
2019-05-01T09:26:50.213Z,60.80
2019-05-01T09:29:20.956Z,63.80
2019-05-01T09:31:50.782Z,61.23
2019-05-01T09:34:21.088Z,58.67
2019-05-01T09:36:50.640Z,61.30
2019-05-01T09:39:21.015Z,53.40
2019-05-01T09:41:50.429Z,56.90
2019-05-01T09:44:19.701Z,50.37
2019-05-01T09:46:49.037Z,53.10
2019-05-01T09:49:20.295Z,54.23
2019-05-01T09:51:55.151Z,56.30
2019-05-01T09:54:26.053Z,58.83
2019-05-01T09:56:55.366Z,61.23
2019-05-01T09:59:24.739Z,58.07
2019-05-01T10:01:55.505Z,58.67
2019-05-01T10:04:25.501Z,58.53
2019-05-01T10:06:55.812Z,61.50
2019-05-01T10:09:27.018Z,63.00
2019-05-01T10:11:56.355Z,63.47
2019-05-01T10:14:25.752Z,64.67
2019-05-01T10:16:55.040Z,63.20
2019-05-01T10:19:24.317Z,54.67
2019-05-01T10:21:53.636Z,58.53
2019-05-01T10:24:22.906Z,55.87
2019-05-01T10:26:55.267Z,58.60
2019-05-01T10:29:38.814Z,62.70
2019-05-01T10:32:26.432Z,57.67
2019-05-01T10:35:00.118Z,56.47
2019-05-01T10:37:33.739Z,54.97
2019-05-01T10:40:01.872Z,54.67
2019-05-01T10:42:32.730Z,60.17
2019-05-01T10:45:02.020Z,56.27
2019-05-01T10:47:31.249Z,59.07
2019-05-01T10:50:00.518Z,56.83
2019-05-01T10:52:29.851Z,62.63
2019-05-01T10:54:59.106Z,59.10
2019-05-01T10:57:28.462Z,60.50
2019-05-01T10:59:57.803Z,59.87
2019-05-01T11:02:28.174Z,63.90
2019-05-01T11:04:57.479Z,66.40
2019-05-01T11:07:26.850Z,62.97
2019-05-01T11:09:57.450Z,66.60
2019-05-01T11:12:26.727Z,61.20
2019-05-01T11:14:56.091Z,65.97
2019-05-01T11:17:25.327Z,63.70
2019-05-01T11:19:54.586Z,60.00
2019-05-01T11:22:23.931Z,60.23
2019-05-01T11:24:53.194Z,49.07
2019-05-01T11:27:22.578Z,54.97
2019-05-01T11:29:51.902Z,52.27
2019-05-01T11:32:31.479Z,48.17
2019-05-01T11:35:02.417Z,48.50
2019-05-01T11:37:33.320Z,50.10
2019-05-01T11:40:19.614Z,50.90
2019-05-01T11:42:48.863Z,47.33
2019-05-01T11:45:18.281Z,46.00
2019-05-01T11:47:47.554Z,50.17
2019-05-01T11:50:16.939Z,52.80
2019-05-01T11:52:46.312Z,51.20
2019-05-01T11:55:15.736Z,55.97
2019-05-01T11:57:45.139Z,58.67
2019-05-01T12:00:16.718Z,60.63
2019-05-01T12:02:47.546Z,69.97
2019-05-01T12:05:17.634Z,65.50
2019-05-01T12:07:48.195Z,71.57
2019-05-01T12:10:18.477Z,67.30
2019-05-01T12:12:47.825Z,71.90
2019-05-01T12:15:17.862Z,74.50
2019-05-01T12:17:50.941Z,80.40
2019-05-01T12:20:21.514Z,75.10
2019-05-01T12:22:51.528Z,75.77
2019-05-01T12:25:21.097Z,74.57
2019-05-01T12:27:50.356Z,75.30
2019-05-01T12:30:21.239Z,68.30
2019-05-01T12:32:50.590Z,73.87
2019-05-01T12:35:19.843Z,74.67
2019-05-01T12:37:49.194Z,72.97
2019-05-01T12:40:22.496Z,76.20
2019-05-01T12:42:53.141Z,72.23
2019-05-01T12:45:22.682Z,73.20
2019-05-01T12:47:53.591Z,77.03
2019-05-01T12:50:23.040Z,72.50
2019-05-01T12:52:59.939Z,72.83
2019-05-01T12:55:47.147Z,71.27
2019-05-01T12:58:16.407Z,72.90
2019-05-01T13:00:54.940Z,71.30
2019-05-01T13:03:24.261Z,72.93
2019-05-01T13:05:53.667Z,69.00
2019-05-01T13:08:23.027Z,69.40
2019-05-01T13:10:52.388Z,63.00
2019-05-01T13:13:21.676Z,57.33
2019-05-01T13:15:51.003Z,54.27
2019-05-01T13:18:20.340Z,52.07
2019-05-01T13:20:49.682Z,53.63
2019-05-01T13:23:18.953Z,52.40
2019-05-01T13:25:49.418Z,53.63
2019-05-01T13:28:32.215Z,52.30
2019-05-01T13:31:20.903Z,50.63
2019-05-01T13:33:50.303Z,47.90
2019-05-01T13:36:19.618Z,47.37
2019-05-01T13:38:48.902Z,47.63
2019-05-01T13:41:18.512Z,44.80
2019-05-01T13:43:47.844Z,45.47
2019-05-01T13:46:17.247Z,45.63
2019-05-01T13:48:46.636Z,44.43
2019-05-01T13:51:16.991Z,44.97
2019-05-01T13:53:46.395Z,44.53
2019-05-01T13:56:15.783Z,43.80
2019-05-01T13:58:45.011Z,43.97
2019-05-01T14:01:15.332Z,42.27
2019-05-01T14:03:44.676Z,45.50
2019-05-01T14:06:14.039Z,46.10
2019-05-01T14:08:43.275Z,47.23
2019-05-01T14:11:12.596Z,46.97
2019-05-01T14:13:41.979Z,46.43
2019-05-01T14:16:14.347Z,46.77
2019-05-01T14:18:43.623Z,47.67
2019-05-01T14:21:17.571Z,46.37
2019-05-01T14:24:05.129Z,47.33
2019-05-01T14:26:34.818Z,49.20
2019-05-01T14:29:04.479Z,45.40
2019-05-01T14:31:33.951Z,48.40
2019-05-01T14:34:03.227Z,48.83
2019-05-01T14:36:32.486Z,46.47
2019-05-01T14:39:01.761Z,49.00
2019-05-01T14:41:31.020Z,48.07
2019-05-01T14:44:00.286Z,50.40
2019-05-01T14:46:29.617Z,49.87
2019-05-01T14:48:58.907Z,50.20
2019-05-01T14:51:28.167Z,48.20
2019-05-01T14:53:57.515Z,48.30
2019-05-01T14:56:26.770Z,48.80
2019-05-01T14:58:56.042Z,48.77
2019-05-01T15:01:25.430Z,49.10
2019-05-01T15:03:54.866Z,51.23
2019-05-01T15:06:24.181Z,48.33
2019-05-01T15:08:53.522Z,54.57
2019-05-01T15:11:22.864Z,54.90
2019-05-01T15:14:00.071Z,54.37
2019-05-01T15:16:39.948Z,52.00
2019-05-01T15:19:10.831Z,51.17
2019-05-01T15:21:42.892Z,53.80
2019-05-01T15:24:12.157Z,51.63
2019-05-01T15:26:41.692Z,52.73
2019-05-01T15:29:11.032Z,52.03
2019-05-01T15:31:40.562Z,50.00
2019-05-01T15:34:09.805Z,49.10
2019-05-01T15:36:39.043Z,52.30
2019-05-01T15:39:10.902Z,50.77
2019-05-01T15:41:44.763Z,51.50
2019-05-01T15:44:18.737Z,49.50
2019-05-01T15:46:49.278Z,49.20
2019-05-01T15:49:18.566Z,49.77
2019-05-01T15:51:47.968Z,48.67
2019-05-01T15:54:18.435Z,49.23
2019-05-01T15:56:47.706Z,49.13
2019-05-01T15:59:17.015Z,51.63
2019-05-01T16:01:46.365Z,49.50
2019-05-01T16:04:15.831Z,50.57
2019-05-01T16:06:45.088Z,49.87
2019-05-01T16:09:14.422Z,49.30
2019-05-01T16:11:48.451Z,46.60
2019-05-01T16:14:17.922Z,47.27
2019-05-01T16:16:47.206Z,48.80
2019-05-01T16:19:16.552Z,48.40
2019-05-01T16:21:45.892Z,46.90
2019-05-01T16:24:15.184Z,47.20
2019-05-01T16:26:44.454Z,47.40
2019-05-01T16:29:13.779Z,45.80
2019-05-01T16:31:43.118Z,44.77
2019-05-01T16:34:13.711Z,45.37
2019-05-01T16:36:43.111Z,41.17
2019-05-01T16:39:14.343Z,43.60
2019-05-01T16:41:46.727Z,44.83
2019-05-01T16:44:16.106Z,44.50
2019-05-01T16:46:45.367Z,43.77
2019-05-01T16:49:14.624Z,44.50
2019-05-01T16:51:43.926Z,44.77
2019-05-01T16:54:13.260Z,45.27
2019-05-01T16:56:42.509Z,41.50
2019-05-01T16:59:11.883Z,41.87
2019-05-01T17:01:49.040Z,43.77
2019-05-01T17:04:25.852Z,43.03
2019-05-01T17:06:56.763Z,45.17
2019-05-01T17:09:42.309Z,47.60
2019-05-01T17:12:12.392Z,49.50
2019-05-01T17:14:41.636Z,44.37
2019-05-01T17:17:12.651Z,46.93
2019-05-01T17:19:41.924Z,50.83
2019-05-01T17:22:14.316Z,48.00
2019-05-01T17:24:42.436Z,47.57
2019-05-01T17:27:11.731Z,47.70
2019-05-01T17:29:41.047Z,49.80
2019-05-01T17:32:12.063Z,49.10
2019-05-01T17:34:41.363Z,47.47
2019-05-01T17:37:10.648Z,49.20
2019-05-01T17:39:39.983Z,47.90
2019-05-01T17:42:09.381Z,49.27
2019-05-01T17:44:39.600Z,47.20
2019-05-01T17:47:09.211Z,47.80
2019-05-01T17:49:41.104Z,48.70
2019-05-01T17:52:09.553Z,49.37
2019-05-01T17:54:38.917Z,44.97
2019-05-01T17:57:11.017Z,46.10
2019-05-01T17:59:40.291Z,44.47
2019-05-01T18:02:11.515Z,43.20
2019-05-01T18:04:54.735Z,43.47
2019-05-01T18:07:24.499Z,43.67
2019-05-01T18:09:55.690Z,44.90
2019-05-01T18:12:28.567Z,45.50
2019-05-01T18:14:55.784Z,47.83
2019-05-01T18:17:25.182Z,49.03
2019-05-01T18:19:58.090Z,46.00
2019-05-01T18:22:45.537Z,46.83
2019-05-01T18:25:19.304Z,48.13
2019-05-01T18:28:02.664Z,48.90
2019-05-01T18:30:33.711Z,48.57
2019-05-01T18:33:03.016Z,48.43
2019-05-01T18:35:32.274Z,49.53
2019-05-01T18:38:10.921Z,51.07
2019-05-01T18:40:38.804Z,55.07
2019-05-01T18:43:08.417Z,50.20
2019-05-01T18:45:49.630Z,49.43
2019-05-01T18:48:20.371Z,47.67
2019-05-01T18:50:55.059Z,47.23
2019-05-01T18:53:21.508Z,47.53
2019-05-01T18:55:50.959Z,48.03
2019-05-01T18:58:20.304Z,47.30
2019-05-01T19:00:49.855Z,47.90
2019-05-01T19:03:22.179Z,48.30
2019-05-01T19:05:50.485Z,51.30
2019-05-01T19:08:19.731Z,49.57
2019-05-01T19:10:49.282Z,49.90
2019-05-01T19:13:18.711Z,50.10
2019-05-01T19:15:48.015Z,48.90
2019-05-01T19:18:17.435Z,52.07
2019-05-01T19:20:58.837Z,49.23
2019-05-01T19:23:22.086Z,51.90
2019-05-01T19:25:50.891Z,50.03
2019-05-01T19:28:20.653Z,53.43
2019-05-01T19:30:50.059Z,53.03
2019-05-01T19:33:19.556Z,51.90
2019-05-01T19:35:49.003Z,53.47
2019-05-01T19:38:18.648Z,54.27
2019-05-01T19:40:48.142Z,54.33
2019-05-01T19:43:17.557Z,54.87
2019-05-01T19:45:48.515Z,54.80
2019-05-01T19:48:17.943Z,53.50
2019-05-01T19:50:49.604Z,55.53
2019-05-01T19:53:19.146Z,57.97
2019-05-01T19:55:48.596Z,56.60
2019-05-01T19:58:17.971Z,55.40
2019-05-01T20:00:53.230Z,56.30
2019-05-01T20:03:23.018Z,57.43
2019-05-01T20:05:52.505Z,55.70
2019-05-01T20:08:22.061Z,56.93
2019-05-01T20:10:51.567Z,58.30
2019-05-01T20:13:20.920Z,60.40
2019-05-01T20:15:50.268Z,64.00
2019-05-01T20:18:19.623Z,56.80
2019-05-01T20:20:49.169Z,56.23
2019-05-01T20:23:18.514Z,61.27
2019-05-01T20:25:50.962Z,83.30
2019-05-01T20:28:20.042Z,59.27
2019-05-01T20:30:53.876Z,53.77
2019-05-01T20:33:25.898Z,57.10
2019-05-01T20:35:55.281Z,57.33
2019-05-01T20:38:26.209Z,55.83
2019-05-01T20:40:55.543Z,55.87
2019-05-01T20:43:25.217Z,57.07
2019-05-01T20:45:54.660Z,57.30
2019-05-01T20:48:25.135Z,56.00
2019-05-01T20:50:54.779Z,57.63
2019-05-01T20:53:24.076Z,57.50
2019-05-01T20:55:54.957Z,59.20
2019-05-01T20:58:24.318Z,57.43
2019-05-01T21:00:55.267Z,58.50
2019-05-01T21:03:24.612Z,55.20
2019-05-01T21:05:56.579Z,56.17
2019-05-01T21:08:34.418Z,60.10
2019-05-01T21:11:06.021Z,59.23
2019-05-01T21:13:33.830Z,59.00
2019-05-01T21:16:03.891Z,58.30
2019-05-01T21:18:33.519Z,57.83
2019-05-01T21:21:03.545Z,57.70
2019-05-01T21:23:33.424Z,60.43
2019-05-01T21:26:03.867Z,58.27
2019-05-01T21:28:36.196Z,59.87
2019-05-01T21:31:05.517Z,59.60
2019-05-01T21:33:34.783Z,59.40
2019-05-01T21:36:08.206Z,59.67
2019-05-01T21:38:35.042Z,64.60
2019-05-01T21:41:04.438Z,61.40
2019-05-01T21:43:37.007Z,61.77
2019-05-01T21:46:08.013Z,60.83
2019-05-01T21:48:38.496Z,63.43
2019-05-01T21:51:07.834Z,64.80
2019-05-01T21:53:41.600Z,58.03
2019-05-01T21:56:08.189Z,59.77
2019-05-01T21:58:37.544Z,60.73
2019-05-01T22:01:07.274Z,62.30
2019-05-01T22:03:36.694Z,59.50
2019-05-01T22:06:05.992Z,59.80
2019-05-01T22:08:39.140Z,61.47
2019-05-01T22:11:06.803Z,59.60
2019-05-01T22:13:36.160Z,60.40
2019-05-01T22:16:12.889Z,59.90
2019-05-01T22:18:56.231Z,57.10
2019-05-01T22:21:33.033Z,57.73
2019-05-01T22:24:20.418Z,57.50
2019-05-01T22:26:59.966Z,54.43
2019-05-01T22:29:32.407Z,51.23
2019-05-01T22:32:03.955Z,52.60
2019-05-01T22:34:51.312Z,52.90
2019-05-01T22:37:20.539Z,51.87
2019-05-01T22:39:53.718Z,49.27
2019-05-01T22:42:23.122Z,51.80
2019-05-01T22:44:53.770Z,50.60
2019-05-01T22:47:23.179Z,50.10
2019-05-01T22:49:52.441Z,50.40
2019-05-01T22:52:21.759Z,52.90
2019-05-01T22:54:52.634Z,53.03
2019-05-01T22:57:21.947Z,53.37
2019-05-01T22:59:51.220Z,52.17
2019-05-01T23:02:28.492Z,50.77
2019-05-01T23:04:55.951Z,51.30
2019-05-01T23:07:25.771Z,58.03
2019-05-01T23:09:59.364Z,56.73
2019-05-01T23:12:26.224Z,57.50
2019-05-01T23:14:55.615Z,56.40
2019-05-01T23:17:39.597Z,58.77
2019-05-01T23:20:09.229Z,57.37
2019-05-01T23:22:38.460Z,60.03
2019-05-01T23:25:09.688Z,59.63
2019-05-01T23:27:39.001Z,58.03
2019-05-01T23:30:10.679Z,57.13
2019-05-01T23:32:46.110Z,57.77
2019-05-01T23:35:15.587Z,57.30
2019-05-01T23:37:44.848Z,56.40
2019-05-01T23:40:15.511Z,54.93
2019-05-01T23:42:52.275Z,53.33
2019-05-01T23:45:16.932Z,54.20
2019-05-01T23:47:46.215Z,54.43
2019-05-01T23:50:15.574Z,55.33
2019-05-01T23:52:44.894Z,52.83
2019-05-01T23:55:14.287Z,53.67
2019-05-01T23:57:43.544Z,52.27
